Slave Lake Airport
CYZH : now visible

Airfield :











YOU CAN JOIN US ON...

 
LOGIN :

Register | Disclaimer

   EN    FR    IT 

 









Legend :    VFR   Marginal VFR   IFR   Intensive IFR   Very Intensive IFR
Visi :
Ceiling :
>= 8 km
>= 3000ft
5 to 8 km
1000 to 3000 ft
1500m to 5 km
500 to 1000 ft
800 to 1500m
200 to 500 ft
< 800m
< 200 ft
Symbols :   Thunderstorms  Fog  Heavy snow  Heavy precipitations  Wind > 20 kt






- Airport Elevation : 1912 ft
- IATA code : YZH


CYZH - Slave Lake

CURRENT METAR :
  • 180600Z AUTO 10005KT 9SM BKN110 07/02 A2993 RMK SLP152

EXPIRED METARs :
  • 180500Z AUTO 01003KT 350V070 9SM BKN091 OVC110 09/01 A2991 RMK SLP145
  • 180400Z AUTO 35005KT 310V040 9SM OVC086 10/00 A2989 RMK SLP137
  • 180300Z AUTO 36008G16KT 9SM FEW086 BKN210 BKN230 11/01 A2987 RMK SLP130
  • 180200Z AUTO 36008G15KT 320V020 9SM OVC091 12/01 A2984 RMK SLP121

TAF TAF CYZH
Valid from the 18 at 01:00 until the 18 at 13:00 UTC


180040Z 1801/1813 33012KT P6SM BKN080 BKN180
TEMPO 1801/1813 SCT080 BKN180 RMK FCST BASED ON AUTO OBS. NXT FCST BY 180700Z
CZEG FIR / North America



MET'MAP, your aeronautical weather chart ! - Copyright ORBIFLY December 2007 - Disclaimer

ORBIFLY MET'MAP TEAM :

Programming & Development : Alexandra Zaïnal
Original concept : Baudouin d'Aumeries
Technical & hardware support : Manuel Goepfert
Assistance : Marc-Olivier Méhu




SOURCES & CREDITS :

   NOAA       Earth
Advisory